sensor_id;sensor_type;location;lat;lon;timestamp;P1;durP1;ratioP1;P2;durP2;ratioP2
60416;SDS011;46263;44.726;10.396;2023-01-23T00:00:39;7.20;;;5.30;;
60416;SDS011;46263;44.726;10.396;2023-01-23T00:03:06;8.07;;;5.72;;
60416;SDS011;46263;44.726;10.396;2023-01-23T00:05:32;6.80;;;5.38;;
60416;SDS011;46263;44.726;10.396;2023-01-23T00:07:58;7.03;;;4.70;;
60416;SDS011;46263;44.726;10.396;2023-01-23T00:10:23;8.93;;;5.50;;
60416;SDS011;46263;44.726;10.396;2023-01-23T00:12:49;7.47;;;5.13;;
60416;SDS011;46263;44.726;10.396;2023-01-23T00:15:17;7.75;;;5.72;;
60416;SDS011;46263;44.726;10.396;2023-01-23T00:17:43;8.23;;;5.43;;
60416;SDS011;46263;44.726;10.396;2023-01-23T00:20:10;7.43;;;5.07;;
60416;SDS011;46263;44.726;10.396;2023-01-23T00:22:37;7.65;;;5.38;;
60416;SDS011;46263;44.726;10.396;2023-01-23T00:25:03;6.45;;;4.95;;
60416;SDS011;46263;44.726;10.396;2023-01-23T00:27:30;7.93;;;5.20;;
60416;SDS011;46263;44.726;10.396;2023-01-23T00:29:55;5.43;;;4.22;;
60416;SDS011;46263;44.726;10.396;2023-01-23T00:32:21;6.90;;;5.07;;
60416;SDS011;46263;44.726;10.396;2023-01-23T00:34:47;6.60;;;5.40;;
60416;SDS011;46263;44.726;10.396;2023-01-23T00:37:12;8.20;;;5.75;;
60416;SDS011;46263;44.726;10.396;2023-01-23T00:39:38;7.88;;;5.10;;
60416;SDS011;46263;44.726;10.396;2023-01-23T00:42:04;6.95;;;5.07;;
60416;SDS011;46263;44.726;10.396;2023-01-23T00:44:30;7.13;;;4.95;;
60416;SDS011;46263;44.726;10.396;2023-01-23T00:46:56;7.45;;;5.25;;
60416;SDS011;46263;44.726;10.396;2023-01-23T00:49:22;8.13;;;6.22;;
60416;SDS011;46263;44.726;10.396;2023-01-23T00:51:49;7.97;;;5.80;;
60416;SDS011;46263;44.726;10.396;2023-01-23T00:54:15;7.00;;;5.43;;
60416;SDS011;46263;44.726;10.396;2023-01-23T00:56:41;6.68;;;5.60;;
60416;SDS011;46263;44.726;10.396;2023-01-23T00:59:07;8.88;;;6.47;;
60416;SDS011;46263;44.726;10.396;2023-01-23T01:01:33;8.20;;;5.85;;
60416;SDS011;46263;44.726;10.396;2023-01-23T01:03:59;8.55;;;6.50;;
60416;SDS011;46263;44.726;10.396;2023-01-23T01:06:25;8.15;;;5.57;;
60416;SDS011;46263;44.726;10.396;2023-01-23T01:08:51;9.43;;;6.15;;
60416;SDS011;46263;44.726;10.396;2023-01-23T01:11:16;7.00;;;5.40;;
60416;SDS011;46263;44.726;10.396;2023-01-23T01:13:43;7.30;;;6.03;;
60416;SDS011;46263;44.726;10.396;2023-01-23T01:16:09;8.48;;;5.57;;
60416;SDS011;46263;44.726;10.396;2023-01-23T01:18:35;8.50;;;6.03;;
60416;SDS011;46263;44.726;10.396;2023-01-23T01:21:08;8.75;;;6.25;;
60416;SDS011;46263;44.726;10.396;2023-01-23T01:26:01;9.50;;;6.22;;
60416;SDS011;46263;44.726;10.396;2023-01-23T01:28:28;8.32;;;6.15;;
60416;SDS011;46263;44.726;10.396;2023-01-23T01:30:56;8.55;;;5.85;;
60416;SDS011;46263;44.726;10.396;2023-01-23T01:33:22;7.28;;;5.68;;
60416;SDS011;46263;44.726;10.396;2023-01-23T01:35:52;10.23;;;5.72;;
60416;SDS011;46263;44.726;10.396;2023-01-23T01:38:21;8.75;;;5.70;;
60416;SDS011;46263;44.726;10.396;2023-01-23T01:40:47;8.52;;;6.00;;
60416;SDS011;46263;44.726;10.396;2023-01-23T01:43:18;8.55;;;5.85;;
60416;SDS011;46263;44.726;10.396;2023-01-23T01:53:59;8.20;;;5.78;;
60416;SDS011;46263;44.726;10.396;2023-01-23T01:59:34;9.98;;;5.78;;
60416;SDS011;46263;44.726;10.396;2023-01-23T02:02:12;8.50;;;5.80;;
60416;SDS011;46263;44.726;10.396;2023-01-23T02:04:47;7.85;;;5.10;;
60416;SDS011;46263;44.726;10.396;2023-01-23T02:07:23;7.10;;;5.93;;
60416;SDS011;46263;44.726;10.396;2023-01-23T02:09:52;8.23;;;5.55;;
60416;SDS011;46263;44.726;10.396;2023-01-23T02:12:18;8.60;;;5.70;;
60416;SDS011;46263;44.726;10.396;2023-01-23T02:14:44;9.07;;;6.45;;
60416;SDS011;46263;44.726;10.396;2023-01-23T02:17:10;9.68;;;6.00;;
60416;SDS011;46263;44.726;10.396;2023-01-23T02:22:25;8.35;;;6.70;;
60416;SDS011;46263;44.726;10.396;2023-01-23T02:27:40;9.43;;;5.90;;
60416;SDS011;46263;44.726;10.396;2023-01-23T02:30:06;9.15;;;5.85;;
60416;SDS011;46263;44.726;10.396;2023-01-23T02:32:33;9.15;;;5.85;;
60416;SDS011;46263;44.726;10.396;2023-01-23T02:35:00;9.18;;;6.10;;
60416;SDS011;46263;44.726;10.396;2023-01-23T02:37:32;8.63;;;5.53;;
60416;SDS011;46263;44.726;10.396;2023-01-23T02:39:59;7.70;;;5.32;;
60416;SDS011;46263;44.726;10.396;2023-01-23T02:42:27;7.18;;;5.47;;
60416;SDS011;46263;44.726;10.396;2023-01-23T02:44:54;7.85;;;5.32;;
60416;SDS011;46263;44.726;10.396;2023-01-23T02:47:22;8.20;;;5.75;;
60416;SDS011;46263;44.726;10.396;2023-01-23T02:49:47;7.97;;;5.50;;
60416;SDS011;46263;44.726;10.396;2023-01-23T02:52:13;7.72;;;5.38;;
60416;SDS011;46263;44.726;10.396;2023-01-23T02:54:39;9.10;;;6.63;;
60416;SDS011;46263;44.726;10.396;2023-01-23T02:57:05;8.57;;;5.53;;
60416;SDS011;46263;44.726;10.396;2023-01-23T02:59:30;8.23;;;5.75;;
60416;SDS011;46263;44.726;10.396;2023-01-23T03:02:15;8.27;;;5.70;;
60416;SDS011;46263;44.726;10.396;2023-01-23T03:04:40;7.88;;;5.53;;
60416;SDS011;46263;44.726;10.396;2023-01-23T03:07:06;7.43;;;5.90;;
60416;SDS011;46263;44.726;10.396;2023-01-23T03:09:31;6.20;;;4.88;;
60416;SDS011;46263;44.726;10.396;2023-01-23T03:11:59;8.65;;;5.82;;
60416;SDS011;46263;44.726;10.396;2023-01-23T03:14:25;7.80;;;5.70;;
60416;SDS011;46263;44.726;10.396;2023-01-23T03:16:51;7.10;;;5.28;;
60416;SDS011;46263;44.726;10.396;2023-01-23T03:19:18;8.07;;;5.43;;
60416;SDS011;46263;44.726;10.396;2023-01-23T03:21:45;9.60;;;5.85;;
60416;SDS011;46263;44.726;10.396;2023-01-23T03:24:12;8.77;;;5.90;;
60416;SDS011;46263;44.726;10.396;2023-01-23T03:26:38;8.93;;;6.35;;
60416;SDS011;46263;44.726;10.396;2023-01-23T03:29:18;10.80;;;6.03;;
60416;SDS011;46263;44.726;10.396;2023-01-23T03:32:05;8.57;;;5.90;;
60416;SDS011;46263;44.726;10.396;2023-01-23T03:34:31;8.68;;;6.60;;
60416;SDS011;46263;44.726;10.396;2023-01-23T03:36:58;9.32;;;6.95;;
60416;SDS011;46263;44.726;10.396;2023-01-23T03:39:24;11.70;;;6.78;;
60416;SDS011;46263;44.726;10.396;2023-01-23T03:42:08;9.32;;;6.80;;
60416;SDS011;46263;44.726;10.396;2023-01-23T03:44:34;10.88;;;7.15;;
60416;SDS011;46263;44.726;10.396;2023-01-23T03:47:00;10.77;;;7.15;;
60416;SDS011;46263;44.726;10.396;2023-01-23T03:49:25;8.60;;;6.53;;
60416;SDS011;46263;44.726;10.396;2023-01-23T03:51:51;14.45;;;7.28;;
60416;SDS011;46263;44.726;10.396;2023-01-23T03:54:16;11.00;;;6.65;;
60416;SDS011;46263;44.726;10.396;2023-01-23T03:56:43;10.85;;;6.60;;
60416;SDS011;46263;44.726;10.396;2023-01-23T03:59:09;10.80;;;7.00;;
60416;SDS011;46263;44.726;10.396;2023-01-23T04:01:35;8.77;;;7.05;;
60416;SDS011;46263;44.726;10.396;2023-01-23T04:04:01;10.55;;;7.07;;
60416;SDS011;46263;44.726;10.396;2023-01-23T04:06:27;9.60;;;6.75;;
60416;SDS011;46263;44.726;10.396;2023-01-23T04:08:52;8.98;;;6.38;;
60416;SDS011;46263;44.726;10.396;2023-01-23T04:11:18;10.32;;;6.70;;
60416;SDS011;46263;44.726;10.396;2023-01-23T04:13:44;8.25;;;6.28;;
60416;SDS011;46263;44.726;10.396;2023-01-23T04:16:11;10.35;;;6.40;;
60416;SDS011;46263;44.726;10.396;2023-01-23T04:18:37;9.93;;;6.90;;
60416;SDS011;46263;44.726;10.396;2023-01-23T04:21:03;8.90;;;6.75;;
60416;SDS011;46263;44.726;10.396;2023-01-23T04:23:29;10.10;;;6.57;;
60416;SDS011;46263;44.726;10.396;2023-01-23T04:25:55;9.93;;;6.93;;
60416;SDS011;46263;44.726;10.396;2023-01-23T04:28:20;11.60;;;6.85;;
60416;SDS011;46263;44.726;10.396;2023-01-23T04:30:47;13.65;;;7.07;;
60416;SDS011;46263;44.726;10.396;2023-01-23T04:33:14;10.02;;;6.30;;
60416;SDS011;46263;44.726;10.396;2023-01-23T04:35:39;9.02;;;6.53;;
60416;SDS011;46263;44.726;10.396;2023-01-23T04:38:12;10.88;;;6.43;;
60416;SDS011;46263;44.726;10.396;2023-01-23T04:40:38;9.57;;;6.72;;
60416;SDS011;46263;44.726;10.396;2023-01-23T04:43:03;10.75;;;6.65;;
60416;SDS011;46263;44.726;10.396;2023-01-23T04:45:29;9.32;;;6.25;;
60416;SDS011;46263;44.726;10.396;2023-01-23T04:47:54;10.80;;;6.20;;
60416;SDS011;46263;44.726;10.396;2023-01-23T04:50:20;9.05;;;6.30;;
60416;SDS011;46263;44.726;10.396;2023-01-23T04:52:46;8.50;;;6.72;;
60416;SDS011;46263;44.726;10.396;2023-01-23T04:55:11;8.75;;;6.05;;
60416;SDS011;46263;44.726;10.396;2023-01-23T04:57:37;8.60;;;6.18;;
60416;SDS011;46263;44.726;10.396;2023-01-23T05:00:03;9.70;;;6.30;;
60416;SDS011;46263;44.726;10.396;2023-01-23T05:02:28;7.97;;;5.57;;
60416;SDS011;46263;44.726;10.396;2023-01-23T05:04:54;8.65;;;6.15;;
60416;SDS011;46263;44.726;10.396;2023-01-23T05:07:20;7.95;;;5.60;;
60416;SDS011;46263;44.726;10.396;2023-01-23T05:09:45;9.98;;;6.05;;
60416;SDS011;46263;44.726;10.396;2023-01-23T05:12:11;7.90;;;5.55;;
60416;SDS011;46263;44.726;10.396;2023-01-23T05:14:36;8.25;;;5.45;;
60416;SDS011;46263;44.726;10.396;2023-01-23T05:17:02;8.30;;;5.93;;
60416;SDS011;46263;44.726;10.396;2023-01-23T05:19:27;8.02;;;5.20;;
60416;SDS011;46263;44.726;10.396;2023-01-23T05:21:53;10.02;;;6.30;;
60416;SDS011;46263;44.726;10.396;2023-01-23T05:24:18;7.85;;;5.75;;
60416;SDS011;46263;44.726;10.396;2023-01-23T05:26:44;8.27;;;6.47;;
60416;SDS011;46263;44.726;10.396;2023-01-23T05:29:09;9.98;;;6.78;;
60416;SDS011;46263;44.726;10.396;2023-01-23T05:31:35;11.13;;;6.38;;
60416;SDS011;46263;44.726;10.396;2023-01-23T05:34:01;8.82;;;6.30;;
60416;SDS011;46263;44.726;10.396;2023-01-23T05:36:26;11.07;;;6.38;;
60416;SDS011;46263;44.726;10.396;2023-01-23T05:38:53;8.20;;;6.13;;
60416;SDS011;46263;44.726;10.396;2023-01-23T05:41:19;9.45;;;6.13;;
60416;SDS011;46263;44.726;10.396;2023-01-23T05:43:45;8.43;;;6.13;;
60416;SDS011;46263;44.726;10.396;2023-01-23T05:46:10;9.98;;;7.63;;
60416;SDS011;46263;44.726;10.396;2023-01-23T05:48:36;9.30;;;6.75;;
60416;SDS011;46263;44.726;10.396;2023-01-23T05:51:02;10.35;;;6.70;;
60416;SDS011;46263;44.726;10.396;2023-01-23T05:53:28;10.40;;;7.22;;
60416;SDS011;46263;44.726;10.396;2023-01-23T05:55:54;11.07;;;7.60;;
60416;SDS011;46263;44.726;10.396;2023-01-23T05:58:19;11.48;;;7.40;;
60416;SDS011;46263;44.726;10.396;2023-01-23T06:00:45;10.43;;;7.47;;
60416;SDS011;46263;44.726;10.396;2023-01-23T06:03:10;11.18;;;6.18;;
60416;SDS011;46263;44.726;10.396;2023-01-23T06:05:36;10.13;;;6.85;;
60416;SDS011;46263;44.726;10.396;2023-01-23T06:08:01;13.00;;;8.32;;
60416;SDS011;46263;44.726;10.396;2023-01-23T06:10:27;11.90;;;7.22;;
60416;SDS011;46263;44.726;10.396;2023-01-23T06:12:53;12.75;;;7.78;;
60416;SDS011;46263;44.726;10.396;2023-01-23T06:15:18;9.95;;;7.45;;
60416;SDS011;46263;44.726;10.396;2023-01-23T06:17:44;11.43;;;7.10;;
60416;SDS011;46263;44.726;10.396;2023-01-23T06:20:10;11.98;;;8.52;;
60416;SDS011;46263;44.726;10.396;2023-01-23T06:22:36;11.77;;;7.82;;
60416;SDS011;46263;44.726;10.396;2023-01-23T06:25:02;13.13;;;8.27;;
60416;SDS011;46263;44.726;10.396;2023-01-23T06:27:28;10.25;;;8.13;;
60416;SDS011;46263;44.726;10.396;2023-01-23T06:29:53;11.77;;;8.63;;
60416;SDS011;46263;44.726;10.396;2023-01-23T06:32:19;10.68;;;7.53;;
60416;SDS011;46263;44.726;10.396;2023-01-23T06:34:45;12.55;;;7.85;;
60416;SDS011;46263;44.726;10.396;2023-01-23T06:37:10;10.75;;;7.72;;
60416;SDS011;46263;44.726;10.396;2023-01-23T06:39:36;10.18;;;7.63;;
60416;SDS011;46263;44.726;10.396;2023-01-23T06:42:02;12.60;;;8.30;;
60416;SDS011;46263;44.726;10.396;2023-01-23T06:44:30;12.15;;;7.85;;
60416;SDS011;46263;44.726;10.396;2023-01-23T06:46:56;15.55;;;8.77;;
60416;SDS011;46263;44.726;10.396;2023-01-23T06:49:22;10.77;;;7.78;;
60416;SDS011;46263;44.726;10.396;2023-01-23T06:51:47;13.38;;;8.82;;
60416;SDS011;46263;44.726;10.396;2023-01-23T06:54:13;12.80;;;8.27;;
60416;SDS011;46263;44.726;10.396;2023-01-23T06:56:38;12.80;;;8.48;;
60416;SDS011;46263;44.726;10.396;2023-01-23T06:59:04;12.13;;;8.48;;
60416;SDS011;46263;44.726;10.396;2023-01-23T07:01:30;14.48;;;8.20;;
60416;SDS011;46263;44.726;10.396;2023-01-23T07:03:56;12.15;;;8.10;;
60416;SDS011;46263;44.726;10.396;2023-01-23T07:06:21;11.45;;;8.32;;
60416;SDS011;46263;44.726;10.396;2023-01-23T07:08:47;11.93;;;7.93;;
60416;SDS011;46263;44.726;10.396;2023-01-23T07:11:14;13.50;;;8.50;;
60416;SDS011;46263;44.726;10.396;2023-01-23T07:13:40;11.55;;;8.57;;
60416;SDS011;46263;44.726;10.396;2023-01-23T07:16:06;11.90;;;9.05;;
60416;SDS011;46263;44.726;10.396;2023-01-23T07:18:31;15.77;;;9.13;;
60416;SDS011;46263;44.726;10.396;2023-01-23T07:20:57;13.88;;;8.95;;
60416;SDS011;46263;44.726;10.396;2023-01-23T07:23:23;12.85;;;8.60;;
60416;SDS011;46263;44.726;10.396;2023-01-23T07:25:49;12.25;;;8.55;;
60416;SDS011;46263;44.726;10.396;2023-01-23T07:28:14;14.05;;;9.68;;
60416;SDS011;46263;44.726;10.396;2023-01-23T07:30:40;15.00;;;9.15;;
60416;SDS011;46263;44.726;10.396;2023-01-23T07:33:06;14.05;;;8.63;;
60416;SDS011;46263;44.726;10.396;2023-01-23T07:35:32;15.00;;;9.00;;
60416;SDS011;46263;44.726;10.396;2023-01-23T07:37:57;17.58;;;8.98;;
60416;SDS011;46263;44.726;10.396;2023-01-23T07:40:23;12.23;;;8.65;;
60416;SDS011;46263;44.726;10.396;2023-01-23T07:42:49;12.40;;;7.75;;
60416;SDS011;46263;44.726;10.396;2023-01-23T07:45:14;13.63;;;8.52;;
60416;SDS011;46263;44.726;10.396;2023-01-23T07:47:40;13.00;;;7.72;;
60416;SDS011;46263;44.726;10.396;2023-01-23T07:50:06;12.05;;;8.25;;
60416;SDS011;46263;44.726;10.396;2023-01-23T07:52:34;14.60;;;8.73;;
60416;SDS011;46263;44.726;10.396;2023-01-23T07:55:00;11.90;;;8.40;;
60416;SDS011;46263;44.726;10.396;2023-01-23T07:57:26;13.32;;;9.25;;
60416;SDS011;46263;44.726;10.396;2023-01-23T07:59:51;13.35;;;8.70;;
60416;SDS011;46263;44.726;10.396;2023-01-23T08:02:17;14.30;;;9.63;;
60416;SDS011;46263;44.726;10.396;2023-01-23T08:04:43;18.17;;;9.52;;
60416;SDS011;46263;44.726;10.396;2023-01-23T08:07:08;16.67;;;9.88;;
60416;SDS011;46263;44.726;10.396;2023-01-23T08:09:34;14.40;;;10.18;;
60416;SDS011;46263;44.726;10.396;2023-01-23T08:11:59;14.70;;;10.02;;
60416;SDS011;46263;44.726;10.396;2023-01-23T08:14:25;16.83;;;10.07;;
60416;SDS011;46263;44.726;10.396;2023-01-23T08:16:51;13.95;;;9.70;;
60416;SDS011;46263;44.726;10.396;2023-01-23T08:19:17;15.93;;;10.30;;
60416;SDS011;46263;44.726;10.396;2023-01-23T08:21:43;16.20;;;11.13;;
60416;SDS011;46263;44.726;10.396;2023-01-23T08:24:12;16.55;;;10.10;;
60416;SDS011;46263;44.726;10.396;2023-01-23T08:26:39;17.35;;;10.90;;
60416;SDS011;46263;44.726;10.396;2023-01-23T08:29:04;19.25;;;10.52;;
60416;SDS011;46263;44.726;10.396;2023-01-23T08:31:30;18.30;;;10.80;;
60416;SDS011;46263;44.726;10.396;2023-01-23T08:33:56;17.77;;;10.20;;
60416;SDS011;46263;44.726;10.396;2023-01-23T08:36:21;15.60;;;10.52;;
60416;SDS011;46263;44.726;10.396;2023-01-23T08:38:47;15.23;;;10.75;;
60416;SDS011;46263;44.726;10.396;2023-01-23T08:41:13;15.38;;;10.63;;
60416;SDS011;46263;44.726;10.396;2023-01-23T08:43:39;16.30;;;10.88;;
60416;SDS011;46263;44.726;10.396;2023-01-23T08:46:09;17.38;;;11.10;;
60416;SDS011;46263;44.726;10.396;2023-01-23T08:48:35;16.92;;;11.02;;
60416;SDS011;46263;44.726;10.396;2023-01-23T08:51:02;18.05;;;11.60;;
60416;SDS011;46263;44.726;10.396;2023-01-23T08:53:29;18.27;;;10.85;;
60416;SDS011;46263;44.726;10.396;2023-01-23T08:56:01;15.13;;;10.40;;
60416;SDS011;46263;44.726;10.396;2023-01-23T08:58:28;17.00;;;10.88;;
60416;SDS011;46263;44.726;10.396;2023-01-23T09:00:54;16.17;;;10.50;;
60416;SDS011;46263;44.726;10.396;2023-01-23T09:03:20;15.50;;;10.30;;
60416;SDS011;46263;44.726;10.396;2023-01-23T09:05:46;17.58;;;11.13;;
60416;SDS011;46263;44.726;10.396;2023-01-23T09:08:12;18.65;;;10.73;;
60416;SDS011;46263;44.726;10.396;2023-01-23T09:10:38;18.98;;;11.02;;
60416;SDS011;46263;44.726;10.396;2023-01-23T09:13:03;15.20;;;10.90;;
60416;SDS011;46263;44.726;10.396;2023-01-23T09:15:29;17.30;;;11.85;;
60416;SDS011;46263;44.726;10.396;2023-01-23T09:17:56;18.40;;;11.82;;
60416;SDS011;46263;44.726;10.396;2023-01-23T09:20:21;17.45;;;12.18;;
60416;SDS011;46263;44.726;10.396;2023-01-23T09:22:50;18.10;;;11.93;;
60416;SDS011;46263;44.726;10.396;2023-01-23T09:25:15;18.50;;;11.90;;
60416;SDS011;46263;44.726;10.396;2023-01-23T09:27:41;16.55;;;10.38;;
60416;SDS011;46263;44.726;10.396;2023-01-23T09:30:07;18.65;;;12.10;;
60416;SDS011;46263;44.726;10.396;2023-01-23T09:32:32;17.10;;;11.70;;
60416;SDS011;46263;44.726;10.396;2023-01-23T09:34:58;16.38;;;11.10;;
60416;SDS011;46263;44.726;10.396;2023-01-23T09:37:24;17.30;;;11.90;;
60416;SDS011;46263;44.726;10.396;2023-01-23T09:39:49;17.75;;;11.25;;
60416;SDS011;46263;44.726;10.396;2023-01-23T09:42:22;17.52;;;12.30;;
60416;SDS011;46263;44.726;10.396;2023-01-23T09:44:59;17.48;;;10.55;;
60416;SDS011;46263;44.726;10.396;2023-01-23T09:47:44;17.33;;;11.15;;
60416;SDS011;46263;44.726;10.396;2023-01-23T09:50:22;17.75;;;11.68;;
60416;SDS011;46263;44.726;10.396;2023-01-23T09:52:57;17.08;;;11.10;;
60416;SDS011;46263;44.726;10.396;2023-01-23T09:58:11;16.58;;;11.13;;
60416;SDS011;46263;44.726;10.396;2023-01-23T10:00:42;17.75;;;11.70;;
60416;SDS011;46263;44.726;10.396;2023-01-23T10:03:12;17.25;;;11.27;;
60416;SDS011;46263;44.726;10.396;2023-01-23T10:11:35;16.27;;;10.95;;
60416;SDS011;46263;44.726;10.396;2023-01-23T10:14:38;15.27;;;11.10;;
60416;SDS011;46263;44.726;10.396;2023-01-23T10:25:28;15.60;;;10.80;;
60416;SDS011;46263;44.726;10.396;2023-01-23T10:28:25;17.58;;;10.88;;
60416;SDS011;46263;44.726;10.396;2023-01-23T10:30:46;16.88;;;10.52;;
60416;SDS011;46263;44.726;10.396;2023-01-23T10:33:16;13.10;;;9.52;;
60416;SDS011;46263;44.726;10.396;2023-01-23T10:35:45;17.23;;;10.73;;
60416;SDS011;46263;44.726;10.396;2023-01-23T10:38:27;14.93;;;10.23;;
60416;SDS011;46263;44.726;10.396;2023-01-23T10:41:11;15.35;;;10.75;;
60416;SDS011;46263;44.726;10.396;2023-01-23T10:43:39;14.80;;;10.30;;
60416;SDS011;46263;44.726;10.396;2023-01-23T10:46:10;14.88;;;9.65;;
60416;SDS011;46263;44.726;10.396;2023-01-23T10:56:31;15.45;;;9.73;;
60416;SDS011;46263;44.726;10.396;2023-01-23T10:58:59;18.25;;;10.25;;
60416;SDS011;46263;44.726;10.396;2023-01-23T11:01:30;15.07;;;9.55;;
60416;SDS011;46263;44.726;10.396;2023-01-23T11:04:13;17.42;;;10.15;;
60416;SDS011;46263;44.726;10.396;2023-01-23T11:06:45;15.35;;;9.85;;
60416;SDS011;46263;44.726;10.396;2023-01-23T11:09:26;17.35;;;10.40;;
60416;SDS011;46263;44.726;10.396;2023-01-23T11:11:59;17.05;;;10.45;;
60416;SDS011;46263;44.726;10.396;2023-01-23T11:14:29;15.50;;;10.38;;
60416;SDS011;46263;44.726;10.396;2023-01-23T11:17:03;15.13;;;10.23;;
60416;SDS011;46263;44.726;10.396;2023-01-23T11:19:38;15.52;;;10.73;;
60416;SDS011;46263;44.726;10.396;2023-01-23T11:22:06;14.93;;;10.50;;
60416;SDS011;46263;44.726;10.396;2023-01-23T11:24:51;15.95;;;9.65;;
60416;SDS011;46263;44.726;10.396;2023-01-23T11:27:22;14.65;;;10.15;;
60416;SDS011;46263;44.726;10.396;2023-01-23T11:32:53;14.88;;;10.52;;
60416;SDS011;46263;44.726;10.396;2023-01-23T11:35:28;14.32;;;9.88;;
60416;SDS011;46263;44.726;10.396;2023-01-23T11:38:08;14.05;;;9.90;;
60416;SDS011;46263;44.726;10.396;2023-01-23T11:40:40;15.80;;;10.63;;
60416;SDS011;46263;44.726;10.396;2023-01-23T11:43:11;13.93;;;10.15;;
60416;SDS011;46263;44.726;10.396;2023-01-23T11:48:17;14.45;;;10.05;;
60416;SDS011;46263;44.726;10.396;2023-01-23T11:50:59;14.98;;;11.10;;
60416;SDS011;46263;44.726;10.396;2023-01-23T11:53:52;13.32;;;9.57;;
60416;SDS011;46263;44.726;10.396;2023-01-23T11:59:45;12.82;;;8.70;;
60416;SDS011;46263;44.726;10.396;2023-01-23T12:05:13;12.95;;;9.02;;
60416;SDS011;46263;44.726;10.396;2023-01-23T12:13:38;10.93;;;8.45;;
60416;SDS011;46263;44.726;10.396;2023-01-23T12:30:08;13.45;;;10.35;;
60416;SDS011;46263;44.726;10.396;2023-01-23T12:44:01;14.73;;;10.15;;
60416;SDS011;46263;44.726;10.396;2023-01-23T12:46:52;14.10;;;9.95;;
60416;SDS011;46263;44.726;10.396;2023-01-23T12:52:34;15.90;;;9.95;;
60416;SDS011;46263;44.726;10.396;2023-01-23T12:55:13;13.98;;;8.82;;
60416;SDS011;46263;44.726;10.396;2023-01-23T12:57:53;13.18;;;8.65;;
60416;SDS011;46263;44.726;10.396;2023-01-23T13:00:33;12.20;;;8.30;;
60416;SDS011;46263;44.726;10.396;2023-01-23T13:13:58;10.50;;;7.03;;
60416;SDS011;46263;44.726;10.396;2023-01-23T13:16:30;9.45;;;7.32;;
60416;SDS011;46263;44.726;10.396;2023-01-23T13:18:56;10.25;;;7.15;;
60416;SDS011;46263;44.726;10.396;2023-01-23T13:22:01;10.13;;;6.93;;
60416;SDS011;46263;44.726;10.396;2023-01-23T13:27:41;11.90;;;8.77;;
60416;SDS011;46263;44.726;10.396;2023-01-23T13:32:46;14.90;;;9.65;;
60416;SDS011;46263;44.726;10.396;2023-01-23T13:52:17;19.17;;;12.88;;
60416;SDS011;46263;44.726;10.396;2023-01-23T13:55:13;21.88;;;14.80;;
60416;SDS011;46263;44.726;10.396;2023-01-23T13:58:11;17.92;;;11.75;;
60416;SDS011;46263;44.726;10.396;2023-01-23T14:00:40;16.60;;;10.73;;
60416;SDS011;46263;44.726;10.396;2023-01-23T14:03:25;15.50;;;10.90;;
60416;SDS011;46263;44.726;10.396;2023-01-23T14:06:14;18.30;;;12.32;;
60416;SDS011;46263;44.726;10.396;2023-01-23T14:08:50;17.83;;;12.52;;
60416;SDS011;46263;44.726;10.396;2023-01-23T14:11:18;19.58;;;12.60;;
60416;SDS011;46263;44.726;10.396;2023-01-23T14:13:51;18.83;;;12.65;;
60416;SDS011;46263;44.726;10.396;2023-01-23T14:16:42;16.80;;;11.32;;
60416;SDS011;46263;44.726;10.396;2023-01-23T14:19:22;19.40;;;11.80;;
60416;SDS011;46263;44.726;10.396;2023-01-23T14:21:53;18.17;;;12.38;;
60416;SDS011;46263;44.726;10.396;2023-01-23T14:24:22;19.17;;;12.27;;
60416;SDS011;46263;44.726;10.396;2023-01-23T14:27:00;22.33;;;12.70;;
60416;SDS011;46263;44.726;10.396;2023-01-23T14:29:32;19.13;;;12.20;;
60416;SDS011;46263;44.726;10.396;2023-01-23T14:31:57;19.45;;;13.20;;
60416;SDS011;46263;44.726;10.396;2023-01-23T14:34:23;18.55;;;12.25;;
60416;SDS011;46263;44.726;10.396;2023-01-23T14:36:51;18.77;;;11.57;;
60416;SDS011;46263;44.726;10.396;2023-01-23T14:39:24;19.77;;;12.63;;
60416;SDS011;46263;44.726;10.396;2023-01-23T14:41:53;17.85;;;12.23;;
60416;SDS011;46263;44.726;10.396;2023-01-23T14:44:25;17.55;;;12.25;;
60416;SDS011;46263;44.726;10.396;2023-01-23T14:46:54;16.90;;;11.20;;
60416;SDS011;46263;44.726;10.396;2023-01-23T14:49:27;16.92;;;11.73;;
60416;SDS011;46263;44.726;10.396;2023-01-23T14:54:26;19.75;;;12.55;;
60416;SDS011;46263;44.726;10.396;2023-01-23T14:56:52;18.35;;;11.88;;
60416;SDS011;46263;44.726;10.396;2023-01-23T14:59:27;18.92;;;13.23;;
60416;SDS011;46263;44.726;10.396;2023-01-23T15:01:57;16.55;;;12.23;;
60416;SDS011;46263;44.726;10.396;2023-01-23T15:04:25;18.27;;;12.30;;
60416;SDS011;46263;44.726;10.396;2023-01-23T15:06:58;21.88;;;13.35;;
60416;SDS011;46263;44.726;10.396;2023-01-23T15:12:02;17.40;;;12.75;;
60416;SDS011;46263;44.726;10.396;2023-01-23T15:14:33;18.50;;;13.07;;
60416;SDS011;46263;44.726;10.396;2023-01-23T15:17:02;18.95;;;13.60;;
60416;SDS011;46263;44.726;10.396;2023-01-23T15:19:30;18.05;;;12.82;;
60416;SDS011;46263;44.726;10.396;2023-01-23T15:22:05;25.23;;;15.73;;
60416;SDS011;46263;44.726;10.396;2023-01-23T15:24:31;34.40;;;17.57;;
60416;SDS011;46263;44.726;10.396;2023-01-23T15:27:04;22.83;;;15.13;;
60416;SDS011;46263;44.726;10.396;2023-01-23T15:29:46;21.75;;;13.30;;
60416;SDS011;46263;44.726;10.396;2023-01-23T15:32:14;20.95;;;13.32;;
60416;SDS011;46263;44.726;10.396;2023-01-23T15:34:50;22.95;;;13.60;;
60416;SDS011;46263;44.726;10.396;2023-01-23T15:37:27;19.63;;;12.65;;
60416;SDS011;46263;44.726;10.396;2023-01-23T15:39:57;22.20;;;13.43;;
60416;SDS011;46263;44.726;10.396;2023-01-23T15:42:27;22.20;;;14.85;;
60416;SDS011;46263;44.726;10.396;2023-01-23T15:44:55;19.63;;;12.95;;
60416;SDS011;46263;44.726;10.396;2023-01-23T15:47:25;20.52;;;13.05;;
60416;SDS011;46263;44.726;10.396;2023-01-23T15:49:53;21.35;;;12.75;;
60416;SDS011;46263;44.726;10.396;2023-01-23T15:54:46;15.88;;;12.23;;
60416;SDS011;46263;44.726;10.396;2023-01-23T15:57:13;19.85;;;12.23;;
60416;SDS011;46263;44.726;10.396;2023-01-23T15:59:38;20.52;;;12.57;;
60416;SDS011;46263;44.726;10.396;2023-01-23T16:02:05;17.08;;;12.15;;
60416;SDS011;46263;44.726;10.396;2023-01-23T16:04:32;21.83;;;14.15;;
60416;SDS011;46263;44.726;10.396;2023-01-23T16:07:03;23.00;;;14.38;;
60416;SDS011;46263;44.726;10.396;2023-01-23T16:09:31;21.90;;;14.85;;
60416;SDS011;46263;44.726;10.396;2023-01-23T16:12:00;19.60;;;12.30;;
60416;SDS011;46263;44.726;10.396;2023-01-23T16:14:25;21.85;;;13.90;;
60416;SDS011;46263;44.726;10.396;2023-01-23T16:16:51;17.30;;;12.07;;
60416;SDS011;46263;44.726;10.396;2023-01-23T16:19:17;19.00;;;12.90;;
60416;SDS011;46263;44.726;10.396;2023-01-23T16:21:43;15.77;;;9.57;;
60416;SDS011;46263;44.726;10.396;2023-01-23T16:24:21;14.23;;;10.63;;
60416;SDS011;46263;44.726;10.396;2023-01-23T16:26:48;12.98;;;9.85;;
60416;SDS011;46263;44.726;10.396;2023-01-23T16:29:36;17.67;;;11.73;;
60416;SDS011;46263;44.726;10.396;2023-01-23T16:32:01;14.68;;;10.10;;
60416;SDS011;46263;44.726;10.396;2023-01-23T16:34:27;17.02;;;10.50;;
60416;SDS011;46263;44.726;10.396;2023-01-23T16:36:53;14.88;;;9.45;;
60416;SDS011;46263;44.726;10.396;2023-01-23T16:39:23;12.27;;;8.02;;
60416;SDS011;46263;44.726;10.396;2023-01-23T16:41:50;13.32;;;7.63;;